createdAt,value
2023-03-30T00:00:58.869Z,97147.81
2023-03-30T00:03:25.275Z,97152.59
2023-03-30T00:05:51.801Z,97140.63
2023-03-30T00:08:18.089Z,97136.31
2023-03-30T00:10:44.298Z,97130.47
2023-03-30T00:13:10.599Z,97139.53
2023-03-30T00:15:36.840Z,97144.31
2023-03-30T00:18:03.085Z,97134.72
2023-03-30T00:20:29.556Z,97116.59
2023-03-30T00:22:55.924Z,97114.16
2023-03-30T00:25:22.147Z,97103.72
2023-03-30T00:27:48.385Z,97108.53
2023-03-30T00:30:14.616Z,97095.44
2023-03-30T00:32:40.921Z,97103.69
2023-03-30T00:35:07.200Z,97106.63
2023-03-30T00:37:33.507Z,97108.75
2023-03-30T00:39:59.747Z,97093.03
2023-03-30T00:42:26.280Z,97083.44
2023-03-30T00:44:52.564Z,97093.81
2023-03-30T00:47:18.788Z,97083.44
2023-03-30T00:49:45.149Z,97083.66
2023-03-30T00:52:11.573Z,97089.25
2023-03-30T00:54:38.063Z,97068.47
2023-03-30T00:57:04.342Z,97084.72
2023-03-30T00:59:30.575Z,97077.00
2023-03-30T01:01:56.889Z,97065.78
2023-03-30T01:04:23.143Z,97066.31
2023-03-30T01:06:49.377Z,97075.34
2023-03-30T01:09:15.646Z,97063.38
2023-03-30T01:11:41.853Z,97063.63
2023-03-30T01:14:08.075Z,97078.28
2023-03-30T01:16:34.782Z,97059.88
2023-03-30T01:19:00.958Z,97060.16
2023-03-30T01:21:27.172Z,97056.94
2023-03-30T01:23:53.476Z,97050.25
2023-03-30T01:26:19.735Z,97068.63
2023-03-30T01:28:45.939Z,97081.16
2023-03-30T01:31:12.227Z,97052.34
2023-03-30T01:33:38.623Z,97052.63
2023-03-30T01:36:06.110Z,97042.22
2023-03-30T01:38:32.513Z,97040.09
2023-03-30T01:40:59.250Z,97045.69
2023-03-30T01:43:26.901Z,97046.97
2023-03-30T01:45:53.298Z,97030.44
2023-03-30T01:48:19.731Z,97038.72
2023-03-30T01:50:46.076Z,97026.47
2023-03-30T01:53:12.445Z,97006.47
2023-03-30T01:55:43.112Z,97021.91
2023-03-30T01:58:09.889Z,97006.41
2023-03-30T02:00:36.326Z,97035.75
2023-03-30T02:03:02.765Z,97027.19
2023-03-30T02:05:29.133Z,97023.22
2023-03-30T02:07:55.444Z,97017.06
2023-03-30T02:10:21.929Z,97023.72
2023-03-30T02:12:48.239Z,97022.94
2023-03-30T02:15:14.738Z,97034.63
2023-03-30T02:17:41.014Z,97023.44
2023-03-30T02:20:08.262Z,97021.84
2023-03-30T02:22:34.458Z,97014.91
2023-03-30T02:25:00.680Z,97020.47
2023-03-30T02:27:27.423Z,97007.44
2023-03-30T02:29:53.789Z,97011.38
2023-03-30T02:32:20.380Z,97010.59
2023-03-30T02:34:46.819Z,97003.66
2023-03-30T02:37:13.206Z,97000.47
2023-03-30T02:39:39.529Z,97004.97
2023-03-30T02:42:08.198Z,97002.56
2023-03-30T02:44:34.639Z,97000.44
2023-03-30T02:47:01.002Z,96988.97
2023-03-30T02:49:27.707Z,96994.56
2023-03-30T02:51:54.029Z,96967.38
2023-03-30T02:54:20.266Z,96984.41
2023-03-30T02:56:46.723Z,96996.38
2023-03-30T02:59:13.144Z,96994.00
2023-03-30T03:01:39.434Z,96989.19
2023-03-30T03:04:05.850Z,96991.03
2023-03-30T03:06:32.328Z,96988.63
2023-03-30T03:09:01.201Z,96985.16
2023-03-30T03:11:27.650Z,96992.59
2023-03-30T03:13:53.955Z,96984.88
2023-03-30T03:16:20.448Z,96992.06
2023-03-30T03:18:46.858Z,96984.34
2023-03-30T03:21:13.214Z,96992.31
2023-03-30T03:23:39.499Z,96991.78
2023-03-30T03:26:05.865Z,96990.19
2023-03-30T03:28:32.274Z,96997.34
2023-03-30T03:30:58.709Z,97011.47
2023-03-30T03:33:25.122Z,97001.88
2023-03-30T03:35:52.792Z,97000.28
2023-03-30T03:38:19.253Z,96996.03
2023-03-30T03:40:45.607Z,96988.03
2023-03-30T03:43:11.876Z,96981.09
2023-03-30T03:45:38.241Z,96975.78
2023-03-30T03:48:04.745Z,96964.56
2023-03-30T03:50:32.455Z,96957.66
2023-03-30T03:52:58.853Z,96951.78
2023-03-30T03:55:25.388Z,96944.88
2023-03-30T03:57:51.715Z,96939.56
2023-03-30T04:00:18.227Z,96926.50
2023-03-30T04:02:44.795Z,96926.50
2023-03-30T04:05:11.161Z,96926.75
2023-03-30T04:07:37.831Z,96937.41
2023-03-30T04:10:04.050Z,96945.38
2023-03-30T04:12:30.383Z,96946.19
2023-03-30T04:14:56.833Z,96938.19
2023-03-30T04:17:23.099Z,96928.63
2023-03-30T04:19:49.678Z,96917.97
2023-03-30T04:22:15.931Z,96922.50
2023-03-30T04:24:42.187Z,96901.22
2023-03-30T04:27:08.457Z,96909.47
2023-03-30T04:29:34.695Z,96932.34
2023-03-30T04:32:01.379Z,96911.31
2023-03-30T04:34:27.635Z,96892.94
2023-03-30T04:36:53.832Z,96909.72
2023-03-30T04:39:20.381Z,96892.13
2023-03-30T04:41:46.616Z,96914.50
2023-03-30T04:44:12.904Z,96918.19
2023-03-30T04:46:39.164Z,96929.66
2023-03-30T04:49:05.390Z,96907.56
2023-03-30T04:51:31.630Z,96911.28
2023-03-30T04:53:57.910Z,96899.84
2023-03-30T04:56:24.544Z,96875.88
2023-03-30T04:58:50.835Z,96897.44
2023-03-30T05:01:17.181Z,96892.13
2023-03-30T05:03:43.554Z,96888.63
2023-03-30T05:06:09.778Z,96895.84
2023-03-30T05:08:35.987Z,96876.16
2023-03-30T05:11:02.502Z,96886.78
2023-03-30T05:13:29.073Z,96870.00
2023-03-30T05:15:55.376Z,96873.50
2023-03-30T05:18:21.666Z,96869.78
2023-03-30T05:20:47.965Z,96880.44
2023-03-30T05:23:14.297Z,96876.69
2023-03-30T05:25:40.630Z,96865.25
2023-03-30T05:28:07.030Z,96858.06
2023-03-30T05:30:33.390Z,96864.97
2023-03-30T05:32:59.765Z,96857.28
2023-03-30T05:35:26.181Z,96841.59
2023-03-30T05:37:52.651Z,96857.84
2023-03-30T05:40:19.044Z,96869.88
2023-03-30T05:42:45.469Z,96865.13
2023-03-30T05:45:11.858Z,96865.66
2023-03-30T05:47:40.643Z,96864.16
2023-03-30T05:50:07.070Z,96874.34
2023-03-30T05:52:33.396Z,96880.22
2023-03-30T05:54:59.873Z,96878.38
2023-03-30T05:57:26.432Z,96888.50
2023-03-30T05:59:52.854Z,96890.63
2023-03-30T06:02:19.143Z,96897.06
2023-03-30T06:04:45.541Z,96897.84
2023-03-30T06:07:12.094Z,96904.78
2023-03-30T06:09:38.464Z,96896.22
2023-03-30T06:12:04.895Z,96899.13
2023-03-30T06:14:31.318Z,96892.44
2023-03-30T06:16:57.782Z,96899.63
2023-03-30T06:19:24.368Z,96892.66
2023-03-30T06:21:50.664Z,96885.19
2023-03-30T06:24:16.966Z,96876.88
2023-03-30T06:26:43.315Z,96881.69
2023-03-30T06:35:03.546Z,96899.81
2023-03-30T06:37:32.307Z,96900.63
2023-03-30T06:39:58.761Z,96905.69
2023-03-30T06:42:25.130Z,96907.28
2023-03-30T06:44:51.530Z,96906.75
2023-03-30T06:47:17.971Z,96901.94
2023-03-30T06:49:44.385Z,96907.81
2023-03-30T06:52:10.884Z,96910.22
2023-03-30T06:54:37.304Z,96905.13
2023-03-30T06:57:03.720Z,96893.38
2023-03-30T06:59:33.162Z,96893.09
2023-03-30T07:02:00.763Z,96886.41
2023-03-30T07:04:27.253Z,96890.69
2023-03-30T07:06:53.685Z,96883.44
2023-03-30T07:09:20.168Z,96892.28
2023-03-30T07:11:47.289Z,96898.16
2023-03-30T07:14:13.758Z,96887.97
2023-03-30T07:16:40.366Z,96899.97
2023-03-30T07:19:06.768Z,96896.25
2023-03-30T07:21:33.152Z,96898.66
2023-03-30T07:24:09.802Z,96892.22
2023-03-30T07:26:36.176Z,96885.00
2023-03-30T07:29:02.684Z,96884.19
2023-03-30T07:31:29.128Z,96888.47
2023-03-30T07:33:55.511Z,96898.09
2023-03-30T07:36:21.880Z,96897.81
2023-03-30T07:38:48.304Z,96901.28
2023-03-30T07:41:14.668Z,96902.38
2023-03-30T07:43:41.154Z,96911.16
2023-03-30T07:46:07.512Z,96918.13
2023-03-30T07:48:37.540Z,96920.81
2023-03-30T07:51:04.107Z,96931.22
2023-03-30T07:53:32.532Z,96926.69
2023-03-30T07:55:59.535Z,96928.25
2023-03-30T07:58:25.848Z,96932.25
2023-03-30T08:00:52.244Z,96921.81
2023-03-30T08:03:18.868Z,96927.94
2023-03-30T08:05:45.436Z,96926.38
2023-03-30T08:08:12.358Z,96923.97
2023-03-30T08:10:38.767Z,96921.03
2023-03-30T08:13:05.208Z,96906.03
2023-03-30T08:15:31.602Z,96919.38
2023-03-30T08:17:58.135Z,96908.69
2023-03-30T08:20:24.680Z,96914.03
2023-03-30T08:22:51.148Z,96916.69
2023-03-30T08:25:17.636Z,96916.41
2023-03-30T08:27:44.112Z,96911.06
2023-03-30T08:30:10.510Z,96907.31
2023-03-30T08:32:36.890Z,96895.56
2023-03-30T08:35:03.286Z,96899.53
2023-03-30T08:37:29.771Z,96878.16
2023-03-30T08:39:56.220Z,96881.00
2023-03-30T08:42:22.715Z,96890.75
2023-03-30T08:44:49.250Z,96889.22
2023-03-30T08:47:15.591Z,96899.63
2023-03-30T08:49:47.360Z,96900.66
2023-03-30T08:52:16.985Z,96884.06
2023-03-30T08:54:46.386Z,96886.25
2023-03-30T08:57:12.863Z,96896.03
2023-03-30T08:59:39.290Z,96908.91
2023-03-30T09:02:07.614Z,96911.44
2023-03-30T09:04:34.043Z,96932.50
2023-03-30T09:07:01.968Z,96927.53
2023-03-30T09:09:28.309Z,96917.59
2023-03-30T09:11:57.785Z,96906.63
2023-03-30T09:14:27.352Z,96893.06
2023-03-30T09:16:53.944Z,96885.19
2023-03-30T09:19:21.802Z,96872.06
2023-03-30T09:21:48.480Z,96853.78
2023-03-30T09:24:14.929Z,96844.00
2023-03-30T09:26:41.423Z,96834.16
2023-03-30T09:29:07.748Z,96820.97
2023-03-30T09:31:34.098Z,96831.25
2023-03-30T09:34:04.915Z,96840.06
2023-03-30T09:36:32.884Z,96849.94
2023-03-30T09:38:59.262Z,96834.16
2023-03-30T09:41:25.734Z,96845.13
2023-03-30T09:43:52.106Z,96840.59
2023-03-30T09:46:18.618Z,96839.22
2023-03-30T09:48:44.955Z,96837.59
2023-03-30T09:51:11.526Z,96836.03
2023-03-30T09:53:37.838Z,96830.66
2023-03-30T09:56:04.430Z,96834.66
2023-03-30T09:58:30.990Z,96839.47
2023-03-30T10:00:57.296Z,96827.34
2023-03-30T10:03:23.699Z,96832.13
2023-03-30T10:05:50.182Z,96832.91
2023-03-30T10:08:16.643Z,96819.81
2023-03-30T10:10:43.124Z,96810.66
2023-03-30T10:13:10.240Z,96815.25
2023-03-30T10:15:48.257Z,96813.34
2023-03-30T10:18:14.637Z,96807.19
2023-03-30T10:20:40.954Z,96808.28
2023-03-30T10:23:07.202Z,96793.00
2023-03-30T10:25:33.656Z,96797.56
2023-03-30T10:27:59.984Z,96817.13
2023-03-30T10:30:26.317Z,96815.47
2023-03-30T10:32:52.874Z,96813.28
2023-03-30T10:35:19.248Z,96799.06
2023-03-30T10:37:45.603Z,96809.72
2023-03-30T10:40:11.927Z,96797.63
2023-03-30T10:42:38.289Z,96797.13
2023-03-30T10:45:04.586Z,96778.56
2023-03-30T10:47:31.218Z,96781.66
2023-03-30T10:49:57.686Z,96771.22
2023-03-30T10:52:24.092Z,96757.59
2023-03-30T10:54:50.580Z,96750.03
2023-03-30T10:57:16.912Z,96752.44
2023-03-30T10:59:43.487Z,96755.81
2023-03-30T11:02:09.798Z,96770.03
2023-03-30T11:04:36.113Z,96781.06
2023-03-30T11:07:02.390Z,96872.13
2023-03-30T11:09:34.607Z,96911.44
2023-03-30T11:12:00.924Z,96893.78
2023-03-30T11:14:27.415Z,96870.25
2023-03-30T11:16:56.790Z,96860.91
2023-03-30T11:19:25.547Z,96846.72
2023-03-30T11:21:51.994Z,96854.78
2023-03-30T11:24:18.430Z,96869.56
2023-03-30T11:26:44.755Z,96877.38
2023-03-30T11:29:11.048Z,96864.56
2023-03-30T11:31:40.483Z,96859.78
2023-03-30T11:34:06.812Z,96855.78
2023-03-30T11:36:33.410Z,96851.03
2023-03-30T11:39:00.510Z,96847.84
2023-03-30T11:41:26.840Z,96843.84
2023-03-30T11:43:53.171Z,96842.53
2023-03-30T11:46:19.683Z,96850.38
2023-03-30T11:48:46.167Z,96856.31
2023-03-30T11:51:12.550Z,96853.41
2023-03-30T11:53:38.847Z,96860.94
2023-03-30T11:56:05.406Z,96857.72
2023-03-30T11:58:31.941Z,96866.06
2023-03-30T12:00:58.414Z,96882.13
2023-03-30T12:03:24.960Z,96871.13
2023-03-30T12:05:52.658Z,96873.53
2023-03-30T12:08:19.033Z,96880.19
2023-03-30T12:10:45.384Z,96881.50
2023-03-30T12:13:11.695Z,96889.81
2023-03-30T12:15:38.060Z,96889.03
2023-03-30T12:18:04.422Z,96889.81
2023-03-30T12:20:34.004Z,96888.25
2023-03-30T12:23:00.495Z,96897.34
2023-03-30T12:25:28.111Z,96886.91
2023-03-30T12:27:54.480Z,96887.94
2023-03-30T12:30:20.939Z,96891.16
2023-03-30T12:32:47.399Z,96878.81
2023-03-30T12:35:13.745Z,96873.44
2023-03-30T12:37:40.093Z,96860.06
2023-03-30T12:40:06.812Z,96852.81
2023-03-30T12:42:33.662Z,96852.25
2023-03-30T12:45:00.139Z,96865.84
2023-03-30T12:47:27.219Z,96869.56
2023-03-30T12:49:53.893Z,96873.06
2023-03-30T12:52:20.261Z,96886.16
2023-03-30T12:54:46.557Z,96886.47
2023-03-30T12:57:12.918Z,96876.00
2023-03-30T12:59:39.274Z,96877.59
2023-03-30T13:02:05.652Z,96873.91
2023-03-30T13:04:33.309Z,96881.94
2023-03-30T13:07:00.078Z,96866.38
2023-03-30T13:09:26.521Z,96871.44
2023-03-30T13:11:52.958Z,96874.94
2023-03-30T13:14:19.429Z,96869.56
2023-03-30T13:16:46.157Z,96870.38
2023-03-30T13:19:12.694Z,96871.44
2023-03-30T13:21:39.146Z,96876.81
2023-03-30T13:24:05.603Z,96876.00
2023-03-30T13:26:35.007Z,96874.94
2023-03-30T13:29:01.949Z,96866.88
2023-03-30T13:31:28.569Z,96880.28
2023-03-30T13:33:55.071Z,96886.72
2023-03-30T13:36:21.456Z,96890.50
2023-03-30T13:38:48.068Z,96886.72
2023-03-30T13:41:14.518Z,96891.31
2023-03-30T13:43:41.015Z,96893.19
2023-03-30T13:46:16.413Z,96896.94
2023-03-30T13:48:43.629Z,96899.63
2023-03-30T13:51:10.048Z,96898.25
2023-03-30T13:53:36.362Z,96901.44
2023-03-30T13:56:03.007Z,96889.34
2023-03-30T13:58:29.561Z,96887.16
2023-03-30T14:00:58.915Z,96894.13
2023-03-30T14:03:25.330Z,96890.34
2023-03-30T14:05:51.607Z,96881.81
2023-03-30T14:08:17.900Z,96884.78
2023-03-30T14:10:44.192Z,96884.47
2023-03-30T14:13:10.630Z,96868.41
2023-03-30T14:15:36.982Z,96882.31
2023-03-30T14:18:03.798Z,96884.22
2023-03-30T14:20:30.413Z,96874.28
2023-03-30T14:22:56.807Z,96883.41
2023-03-30T14:25:23.178Z,96880.22
2023-03-30T14:27:49.541Z,96885.56
2023-03-30T14:30:15.946Z,96883.41
2023-03-30T14:32:42.399Z,96894.66
2023-03-30T14:35:08.940Z,96903.19
2023-03-30T14:37:35.264Z,96910.44
2023-03-30T14:40:01.661Z,96905.66
2023-03-30T14:42:28.184Z,96913.69
2023-03-30T14:44:54.576Z,96911.28
2023-03-30T14:47:21.002Z,96905.16
2023-03-30T14:49:47.489Z,96903.53
2023-03-30T14:52:13.824Z,96916.16
2023-03-30T14:54:42.053Z,96908.13
2023-03-30T14:57:13.008Z,96905.16
2023-03-30T14:59:39.893Z,96910.81
2023-03-30T15:02:06.593Z,96913.47
2023-03-30T15:04:32.924Z,96909.19
2023-03-30T15:06:59.327Z,96921.78
2023-03-30T15:09:25.711Z,96916.19
2023-03-30T15:11:52.155Z,96931.78
2023-03-30T15:14:18.474Z,96935.53
2023-03-30T15:16:44.969Z,96944.69
2023-03-30T15:19:12.533Z,96950.03
2023-03-30T15:21:38.921Z,96960.75
2023-03-30T15:24:05.214Z,96959.66
2023-03-30T15:26:31.756Z,96961.00
2023-03-30T15:28:58.586Z,96962.56
2023-03-30T15:31:24.905Z,96961.50
2023-03-30T15:33:51.240Z,96966.00
2023-03-30T15:36:18.057Z,96961.16
2023-03-30T15:38:44.400Z,96944.25
2023-03-30T15:41:10.808Z,96949.91
2023-03-30T15:43:37.416Z,96932.25
2023-03-30T15:46:03.807Z,96939.47
2023-03-30T15:48:32.050Z,96944.03
2023-03-30T15:50:58.685Z,96942.97
2023-03-30T15:53:27.852Z,96945.66
2023-03-30T15:55:54.143Z,96936.81
2023-03-30T15:58:20.532Z,96937.59
2023-03-30T16:00:47.061Z,96934.13
2023-03-30T16:03:13.744Z,96928.25
2023-03-30T16:05:40.445Z,96929.34
2023-03-30T16:08:06.838Z,96939.53
2023-03-30T16:10:33.423Z,96937.94
2023-03-30T16:13:00.606Z,96935.53
2023-03-30T16:15:27.222Z,96942.00
2023-03-30T16:17:53.795Z,96933.97
2023-03-30T16:20:20.321Z,96940.69
2023-03-30T16:22:47.260Z,96935.31
2023-03-30T16:25:14.157Z,96931.34
2023-03-30T16:27:40.586Z,96934.03
2023-03-30T16:30:06.970Z,96931.63
2023-03-30T16:32:35.838Z,96944.22
2023-03-30T16:35:02.262Z,96937.25
2023-03-30T16:37:28.534Z,96938.34
2023-03-30T16:39:54.778Z,96939.44
2023-03-30T16:42:21.137Z,96938.94
2023-03-30T16:44:47.385Z,96944.59
2023-03-30T16:47:13.674Z,96939.47
2023-03-30T16:49:39.917Z,96932.53
2023-03-30T16:52:06.190Z,96925.84
2023-03-30T16:54:33.163Z,96932.59
2023-03-30T16:56:59.854Z,96927.00
2023-03-30T16:59:26.249Z,96924.63
2023-03-30T17:01:52.580Z,96925.97
2023-03-30T17:04:19.049Z,96931.63
2023-03-30T17:06:45.418Z,96928.44
2023-03-30T17:09:11.695Z,96929.53
2023-03-30T17:11:37.972Z,96934.38
2023-03-30T17:14:04.222Z,96928.50
2023-03-30T17:16:30.546Z,96914.13
2023-03-30T17:18:56.993Z,96927.44
2023-03-30T17:21:23.260Z,96924.28
2023-03-30T17:23:49.593Z,96937.16
2023-03-30T17:26:15.998Z,96938.22
2023-03-30T17:28:42.361Z,96941.19
2023-03-30T17:31:11.153Z,96947.91
2023-03-30T17:33:37.743Z,96943.59
2023-03-30T17:36:04.156Z,96950.34
2023-03-30T17:38:30.659Z,96949.81
2023-03-30T17:40:57.195Z,96948.50
2023-03-30T17:43:23.658Z,96957.63
2023-03-30T17:45:50.840Z,96949.34
2023-03-30T17:48:17.326Z,96960.06
2023-03-30T17:50:43.808Z,96966.47
2023-03-30T17:53:10.334Z,96968.38
2023-03-30T17:55:36.645Z,96971.06
2023-03-30T17:58:02.986Z,96971.34
2023-03-30T18:00:30.070Z,96974.00
2023-03-30T18:02:56.390Z,96981.25
2023-03-30T18:05:22.720Z,96979.38
2023-03-30T18:07:50.139Z,96982.06
2023-03-30T18:10:16.517Z,96983.91
2023-03-30T18:12:42.862Z,96990.09
2023-03-30T18:15:09.195Z,96994.63
2023-03-30T18:17:35.721Z,97001.03
2023-03-30T18:20:02.100Z,96998.38
2023-03-30T18:22:35.578Z,97005.34
2023-03-30T18:25:01.852Z,96999.19
2023-03-30T18:27:28.112Z,97014.44
2023-03-30T18:29:54.380Z,97019.78
2023-03-30T18:32:20.698Z,97014.72
2023-03-30T18:34:47.130Z,97013.94
2023-03-30T18:37:14.016Z,97020.06
2023-03-30T18:39:40.305Z,97015.81
2023-03-30T18:42:06.543Z,97009.66
2023-03-30T18:44:33.291Z,97020.34
2023-03-30T18:47:02.721Z,97025.72
2023-03-30T18:49:31.549Z,97027.88
2023-03-30T18:51:58.056Z,97027.09
2023-03-30T18:54:24.517Z,97015.56
2023-03-30T18:56:51.192Z,97013.19
2023-03-30T18:59:17.763Z,97021.50
2023-03-30T19:01:44.171Z,97023.06
2023-03-30T19:04:10.604Z,97014.53
2023-03-30T19:06:37.020Z,97012.94
2023-03-30T19:09:03.311Z,97016.66
2023-03-30T19:11:29.719Z,97007.06
2023-03-30T19:13:56.034Z,97014.28
2023-03-30T19:16:23.308Z,97011.09
2023-03-30T19:18:49.782Z,97029.03
2023-03-30T19:21:16.090Z,97021.25
2023-03-30T19:23:42.446Z,97019.41
2023-03-30T19:26:08.739Z,97027.72
2023-03-30T19:28:35.005Z,97026.91
2023-03-30T19:31:01.436Z,97008.44
2023-03-30T19:33:27.888Z,97013.78
2023-03-30T19:35:54.543Z,97008.72
2023-03-30T19:38:20.814Z,97013.28
2023-03-30T19:40:47.042Z,97010.88
2023-03-30T19:43:13.322Z,97014.38
2023-03-30T19:45:39.578Z,97011.16
2023-03-30T19:48:05.941Z,97022.69
2023-03-30T19:50:32.454Z,97024.81
2023-03-30T19:52:58.880Z,97020.56
2023-03-30T19:55:25.229Z,97020.81
2023-03-30T19:57:51.472Z,97023.00
2023-03-30T20:00:17.877Z,97018.69
2023-03-30T20:02:44.290Z,97016.03
2023-03-30T20:05:10.676Z,97027.00
2023-03-30T20:07:36.992Z,97014.72
2023-03-30T20:10:08.246Z,97009.63
2023-03-30T20:15:32.499Z,97016.34
2023-03-30T20:20:44.163Z,97019.03
2023-03-30T20:23:10.750Z,97019.84
2023-03-30T20:25:37.066Z,97013.66
2023-03-30T20:28:03.519Z,97015.25
2023-03-30T20:33:54.946Z,97010.44
2023-03-30T20:36:21.324Z,96994.38
2023-03-30T20:39:06.372Z,97012.03
2023-03-30T20:44:43.823Z,97017.66
2023-03-30T20:47:10.227Z,97017.38
2023-03-30T20:52:27.700Z,97007.19
2023-03-30T20:54:54.036Z,97001.84
2023-03-30T20:57:20.651Z,97004.50
2023-03-30T20:59:47.936Z,96993.81
2023-03-30T21:02:14.673Z,96992.72
2023-03-30T21:04:41.057Z,96986.56
2023-03-30T21:07:07.431Z,96996.47
2023-03-30T21:09:34.093Z,96982.28
2023-03-30T21:12:00.697Z,96981.47
2023-03-30T21:14:27.212Z,96982.56
2023-03-30T21:16:54.073Z,96982.56
2023-03-30T21:22:46.515Z,96979.13
2023-03-30T21:25:31.607Z,96973.56
2023-03-30T21:27:58.060Z,96978.72
2023-03-30T21:30:24.442Z,96970.50
2023-03-30T21:32:50.750Z,96969.97
2023-03-30T21:35:17.076Z,96970.25
2023-03-30T21:37:47.171Z,96972.16
2023-03-30T21:40:13.524Z,96975.13
2023-03-30T21:42:42.503Z,96979.69
2023-03-30T21:45:09.692Z,96967.47
2023-03-30T21:47:36.390Z,96963.72
2023-03-30T21:50:03.151Z,96965.63
2023-03-30T21:52:29.927Z,96955.75
2023-03-30T21:54:57.542Z,96956.31
2023-03-30T21:57:33.106Z,96946.44
2023-03-30T22:00:08.481Z,96943.78
2023-03-30T22:02:35.727Z,96943.53
2023-03-30T22:05:11.950Z,96933.69
2023-03-30T22:07:44.188Z,96937.19
2023-03-30T22:10:10.722Z,96931.28
2023-03-30T22:15:49.152Z,96923.84
2023-03-30T22:18:15.532Z,96918.25
2023-03-30T22:20:42.163Z,96919.56
2023-03-30T22:23:08.536Z,96910.22
2023-03-30T22:25:34.892Z,96903.81
2023-03-30T22:28:01.323Z,96894.78
2023-03-30T22:30:27.755Z,96893.44
2023-03-30T22:32:54.152Z,96891.31
2023-03-30T22:35:20.473Z,96882.25
2023-03-30T22:37:47.007Z,96883.59
2023-03-30T22:40:13.338Z,96878.03
2023-03-30T22:42:39.752Z,96885.78
2023-03-30T22:45:06.233Z,96882.56
2023-03-30T22:47:33.093Z,96886.84
2023-03-30T22:49:59.441Z,96889.78
2023-03-30T22:55:27.186Z,96891.94
2023-03-30T22:57:55.740Z,96876.19
2023-03-30T23:00:22.098Z,96890.06
2023-03-30T23:02:48.573Z,96885.00
2023-03-30T23:05:14.995Z,96884.75
2023-03-30T23:07:41.377Z,96878.09
2023-03-30T23:10:07.747Z,96873.31
2023-03-30T23:12:34.078Z,96870.09
2023-03-30T23:15:00.401Z,96872.22
2023-03-30T23:17:26.791Z,96865.56
2023-03-30T23:19:53.112Z,96865.00
2023-03-30T23:22:20.465Z,96862.63
2023-03-30T23:24:47.140Z,96854.91
2023-03-30T23:27:13.923Z,96858.09
2023-03-30T23:29:40.284Z,96866.63
2023-03-30T23:32:06.619Z,96856.50
2023-03-30T23:34:32.896Z,96856.78
2023-03-30T23:36:59.212Z,96854.63
2023-03-30T23:39:25.576Z,96838.09
2023-03-30T23:41:51.935Z,96848.75
2023-03-30T23:44:18.544Z,96852.78
2023-03-30T23:46:44.949Z,96852.25
2023-03-30T23:49:11.284Z,96841.84
2023-03-30T23:51:37.682Z,96846.66
2023-03-30T23:54:04.609Z,96846.13
2023-03-30T23:56:30.924Z,96840.22
2023-03-30T23:58:57.454Z,96838.91
